createdAt,value
2019-04-28T00:03:51.577Z,19.83
2019-04-28T00:08:01.176Z,20.57
2019-04-28T00:12:09.158Z,19.57
2019-04-28T00:16:16.937Z,18.07
2019-04-28T00:20:36.252Z,17.80
2019-04-28T00:24:57.892Z,17.47
2019-04-28T00:29:05.985Z,16.20
2019-04-28T00:33:13.790Z,15.37
2019-04-28T00:37:33.384Z,16.77
2019-04-28T00:41:42.096Z,16.73
2019-04-28T00:45:51.284Z,17.47
2019-04-28T00:49:59.467Z,18.73
2019-04-28T00:54:07.784Z,20.43
2019-04-28T00:58:16.006Z,19.80
2019-04-28T01:02:43.118Z,19.57
2019-04-28T01:06:52.009Z,21.00
2019-04-28T01:11:01.803Z,19.57
2019-04-28T01:15:33.664Z,19.90
2019-04-28T01:19:43.517Z,22.47
2019-04-28T01:23:51.679Z,20.63
2019-04-28T01:28:00.216Z,23.07
2019-04-28T01:32:33.142Z,23.53
2019-04-28T01:36:41.400Z,18.77
2019-04-28T01:40:49.940Z,20.17
2019-04-28T01:44:57.913Z,19.77
2019-04-28T01:49:05.945Z,19.57
2019-04-28T01:53:14.755Z,18.37
2019-04-28T01:57:22.881Z,18.87
2019-04-28T02:01:30.634Z,18.30
2019-04-28T02:05:40.475Z,18.00
2019-04-28T02:09:49.482Z,21.93
2019-04-28T02:13:57.272Z,21.83
2019-04-28T02:18:05.537Z,24.00
2019-04-28T02:22:22.637Z,21.73
2019-04-28T02:26:30.555Z,22.07
2019-04-28T02:30:47.804Z,35.33
2019-04-28T02:34:50.657Z,27.10
2019-04-28T02:38:58.013Z,27.63
2019-04-28T02:43:06.170Z,24.93
2019-04-28T02:47:14.141Z,29.17
2019-04-28T02:51:30.652Z,27.37
2019-04-28T02:55:38.151Z,27.60
2019-04-28T02:59:46.227Z,27.10
2019-04-28T03:03:54.564Z,23.97
2019-04-28T03:08:02.372Z,25.00
2019-04-28T03:12:11.516Z,23.93
2019-04-28T03:16:20.860Z,22.53
2019-04-28T03:20:30.580Z,25.17
2019-04-28T03:24:41.341Z,24.40
2019-04-28T03:29:17.141Z,23.90
2019-04-28T03:33:26.765Z,21.83
2019-04-28T03:37:34.817Z,25.67
2019-04-28T03:41:42.737Z,25.53
2019-04-28T03:45:55.368Z,24.97
2019-04-28T03:50:03.105Z,25.13
2019-04-28T03:54:10.769Z,26.27
2019-04-28T03:58:23.637Z,29.60
2019-04-28T04:02:31.106Z,28.63
2019-04-28T04:06:40.837Z,29.13
2019-04-28T04:10:53.765Z,29.60
2019-04-28T04:15:21.332Z,26.03
2019-04-28T04:19:33.335Z,24.03
2019-04-28T04:23:41.429Z,25.17
2019-04-28T04:27:50.313Z,22.23
2019-04-28T04:32:13.667Z,24.03
2019-04-28T04:36:11.554Z,25.43
2019-04-28T04:40:20.975Z,26.20
2019-04-28T04:44:30.857Z,27.07
2019-04-28T04:48:37.755Z,28.43
2019-04-28T04:52:46.083Z,27.47
2019-04-28T04:56:54.292Z,26.13
2019-04-28T05:01:10.596Z,23.30
2019-04-28T05:05:30.336Z,25.30
2019-04-28T05:09:39.535Z,22.87
2019-04-28T05:13:47.363Z,12.00
2019-04-28T05:17:55.572Z,4.27
2019-04-28T05:22:05.302Z,13.13
2019-04-28T05:26:12.973Z,11.53
2019-04-28T05:30:20.732Z,15.13
2019-04-28T05:34:29.690Z,3.53
2019-04-28T05:38:40.189Z,12.40
2019-04-28T05:43:01.091Z,17.50
2019-04-28T05:47:09.874Z,15.43
2019-04-28T05:51:19.986Z,12.37
2019-04-28T05:55:52.622Z,11.40
2019-04-28T06:00:19.750Z,3.63
2019-04-28T06:04:30.477Z,3.80
2019-04-28T06:08:59.787Z,3.90
2019-04-28T06:13:09.973Z,4.40
2019-04-28T06:17:18.227Z,3.77
2019-04-28T06:21:26.095Z,4.67
2019-04-28T06:25:34.133Z,4.57
2019-04-28T06:29:42.057Z,4.57
2019-04-28T06:33:49.948Z,4.30
2019-04-28T06:37:58.084Z,4.33
2019-04-28T06:42:06.578Z,3.30
2019-04-28T06:46:14.473Z,3.80
2019-04-28T06:50:22.299Z,3.47
2019-04-28T06:54:29.940Z,3.00
2019-04-28T06:58:37.695Z,3.10
2019-04-28T07:02:46.648Z,2.83
2019-04-28T07:06:54.243Z,2.60
2019-04-28T07:11:02.171Z,3.57
2019-04-28T07:15:10.736Z,3.20
2019-04-28T07:19:18.636Z,2.70
2019-04-28T07:23:26.703Z,2.63
2019-04-28T07:27:34.998Z,2.50
2019-04-28T07:31:42.666Z,2.67
2019-04-28T07:35:50.578Z,2.27
2019-04-28T07:39:59.516Z,1.73
2019-04-28T07:44:07.258Z,3.57
2019-04-28T07:48:15.564Z,2.70
2019-04-28T07:52:45.836Z,2.40
2019-04-28T07:56:53.805Z,2.10
2019-04-28T08:01:01.787Z,2.10
2019-04-28T08:05:09.633Z,2.13
2019-04-28T08:09:18.063Z,2.17
2019-04-28T08:13:26.378Z,2.00
2019-04-28T08:17:34.998Z,1.90
2019-04-28T08:21:43.195Z,1.90
2019-04-28T08:25:51.467Z,1.80
2019-04-28T08:29:59.333Z,2.10
2019-04-28T08:34:07.784Z,1.77
2019-04-28T08:38:17.201Z,1.63
2019-04-28T08:42:24.845Z,2.00
2019-04-28T08:46:32.824Z,1.50
2019-04-28T08:50:42.177Z,1.60
2019-04-28T08:54:50.295Z,1.37
2019-04-28T08:58:58.052Z,1.43
2019-04-28T09:03:05.902Z,1.60
2019-04-28T09:07:13.976Z,1.20
2019-04-28T09:11:21.731Z,1.60
2019-04-28T09:15:29.900Z,1.77
2019-04-28T09:19:37.771Z,1.20
2019-04-28T09:23:45.476Z,1.53
2019-04-28T09:27:53.640Z,3.03
2019-04-28T09:32:01.440Z,1.10
2019-04-28T09:36:09.057Z,1.27
2019-04-28T09:40:21.548Z,1.80
2019-04-28T09:44:29.672Z,1.20
2019-04-28T09:48:38.372Z,1.40
2019-04-28T09:52:48.733Z,1.17
2019-04-28T09:56:57.265Z,1.00
2019-04-28T10:01:05.883Z,1.30
2019-04-28T10:05:13.810Z,1.00
2019-04-28T10:09:22.026Z,1.50
2019-04-28T10:13:29.845Z,0.90
2019-04-28T10:17:38.502Z,1.27
2019-04-28T10:21:46.386Z,1.80
2019-04-28T10:25:54.305Z,1.30
2019-04-28T10:30:02.151Z,1.10
2019-04-28T10:34:09.914Z,1.47
2019-04-28T10:38:18.391Z,1.12
2019-04-28T10:42:26.469Z,1.02
2019-04-28T10:46:34.469Z,1.55
2019-04-28T10:50:43.492Z,1.37
2019-04-28T10:54:51.304Z,1.10
2019-04-28T10:58:59.516Z,1.30
2019-04-28T11:03:07.663Z,1.02
2019-04-28T11:07:16.476Z,1.05
2019-04-28T11:11:26.524Z,1.00
2019-04-28T11:15:36.371Z,1.10
2019-04-28T11:19:44.114Z,1.30
2019-04-28T11:23:52.116Z,1.25
2019-04-28T11:28:00.158Z,1.47
2019-04-28T11:32:08.230Z,1.30
2019-04-28T11:36:18.722Z,1.42
2019-04-28T11:40:27.200Z,1.82
2019-04-28T11:44:35.465Z,1.47
2019-04-28T11:48:44.957Z,1.30
2019-04-28T11:52:52.837Z,1.30
2019-04-28T11:57:01.086Z,1.22
2019-04-28T12:01:10.823Z,1.87
2019-04-28T12:05:19.637Z,1.25
2019-04-28T12:09:32.800Z,1.15
2019-04-28T12:13:54.274Z,1.82
2019-04-28T12:18:20.518Z,1.25
2019-04-28T12:22:28.577Z,1.25
2019-04-28T12:26:36.937Z,1.47
2019-04-28T12:30:47.557Z,1.60
2019-04-28T12:34:55.624Z,1.32
2019-04-28T12:39:04.272Z,1.30
2019-04-28T12:43:13.867Z,1.65
2019-04-28T12:47:23.114Z,1.50
2019-04-28T12:51:31.546Z,1.20
2019-04-28T12:55:39.465Z,1.32
2019-04-28T12:59:55.358Z,1.40
2019-04-28T13:04:34.234Z,1.40
2019-04-28T13:08:42.171Z,1.42
2019-04-28T13:12:50.418Z,1.45
2019-04-28T13:16:58.253Z,1.45
2019-04-28T13:21:06.248Z,1.17
2019-04-28T13:25:14.487Z,1.67
2019-04-28T13:29:22.380Z,1.52
2019-04-28T13:33:30.693Z,1.40
2019-04-28T13:37:38.600Z,1.25
2019-04-28T13:41:46.817Z,1.40
2019-04-28T13:45:55.278Z,1.20
2019-04-28T13:50:22.239Z,1.67
2019-04-28T13:54:30.135Z,1.10
2019-04-28T13:58:43.245Z,1.20
2019-04-28T14:03:07.377Z,1.40
2019-04-28T14:07:14.793Z,1.47
2019-04-28T14:11:23.179Z,1.20
2019-04-28T14:15:31.543Z,1.35
2019-04-28T14:19:40.330Z,1.55
2019-04-28T14:23:48.268Z,1.40
2019-04-28T14:27:56.152Z,1.20
2019-04-28T14:32:04.328Z,1.07
2019-04-28T14:36:12.335Z,1.40
2019-04-28T14:40:20.849Z,1.37
2019-04-28T14:44:29.151Z,1.20
2019-04-28T14:48:38.164Z,1.72
2019-04-28T14:52:46.497Z,1.50
2019-04-28T14:56:55.497Z,1.57
2019-04-28T15:01:11.560Z,1.20
2019-04-28T15:05:46.642Z,1.07
2019-04-28T15:10:05.781Z,0.90
2019-04-28T15:14:14.084Z,0.93
2019-04-28T15:18:22.004Z,1.07
2019-04-28T15:22:30.356Z,1.30
2019-04-28T15:26:38.010Z,1.10
2019-04-28T15:30:46.131Z,0.90
2019-04-28T15:34:53.893Z,0.90
2019-04-28T15:39:01.836Z,1.20
2019-04-28T15:43:11.852Z,1.57
2019-04-28T15:47:19.622Z,1.13
2019-04-28T15:51:27.824Z,1.00
2019-04-28T15:55:42.534Z,1.07
2019-04-28T15:59:50.229Z,0.90
2019-04-28T16:03:58.086Z,1.57
2019-04-28T16:08:06.502Z,1.23
2019-04-28T16:12:13.981Z,1.77
2019-04-28T16:16:22.114Z,1.10
2019-04-28T16:20:30.004Z,0.90
2019-04-28T16:24:38.211Z,1.17
2019-04-28T16:28:46.423Z,1.50
2019-04-28T16:32:54.955Z,1.50
2019-04-28T16:37:03.286Z,0.90
2019-04-28T16:41:11.805Z,1.10
2019-04-28T16:45:20.295Z,1.27
2019-04-28T16:49:28.342Z,1.30
2019-04-28T16:53:36.252Z,0.97
2019-04-28T16:58:06.068Z,0.83
2019-04-28T17:02:42.251Z,0.90
2019-04-28T17:06:50.270Z,0.83
2019-04-28T17:10:58.651Z,1.53
2019-04-28T17:15:07.500Z,1.00
2019-04-28T17:19:15.653Z,1.50
2019-04-28T17:23:23.618Z,1.70
2019-04-28T17:27:31.663Z,1.70
2019-04-28T17:31:39.648Z,6.80
2019-04-28T17:35:47.902Z,12.23
2019-04-28T17:39:56.053Z,6.23
2019-04-28T17:44:05.161Z,3.43
2019-04-28T17:48:21.806Z,3.13
2019-04-28T17:52:29.735Z,2.43
2019-04-28T17:56:37.405Z,2.13
2019-04-28T18:01:19.930Z,2.20
2019-04-28T18:05:38.570Z,3.93
2019-04-28T18:09:46.862Z,2.77
2019-04-28T18:13:55.554Z,2.90
2019-04-28T18:18:21.967Z,2.70
2019-04-28T18:22:29.932Z,2.40
2019-04-28T18:26:37.632Z,3.70
2019-04-28T18:30:52.759Z,4.73
2019-04-28T18:35:06.106Z,2.23
2019-04-28T18:39:38.501Z,2.73
2019-04-28T18:44:11.152Z,2.93
2019-04-28T18:48:19.150Z,2.33
2019-04-28T18:52:26.979Z,2.30
2019-04-28T18:56:35.754Z,1.87
2019-04-28T19:00:48.978Z,2.17
2019-04-28T19:04:56.765Z,2.10
2019-04-28T19:09:44.238Z,2.10
2019-04-28T19:13:57.911Z,1.90
2019-04-28T19:18:12.955Z,2.27
2019-04-28T19:22:21.111Z,1.77
2019-04-28T19:26:28.834Z,3.20
2019-04-28T19:30:37.658Z,2.23
2019-04-28T19:34:45.699Z,2.07
2019-04-28T19:39:02.882Z,2.53
2019-04-28T19:43:02.804Z,1.73
2019-04-28T19:47:11.058Z,2.00
2019-04-28T19:51:31.214Z,3.67
2019-04-28T19:55:33.404Z,3.27
2019-04-28T19:59:58.443Z,3.03
2019-04-28T20:04:06.346Z,1.67
2019-04-28T20:08:14.459Z,1.20
2019-04-28T20:12:21.986Z,1.80
2019-04-28T20:16:29.855Z,1.77
2019-04-28T20:20:38.187Z,1.47
2019-04-28T20:24:47.384Z,1.47
2019-04-28T20:28:55.958Z,1.10
2019-04-28T20:33:07.238Z,1.70
2019-04-28T20:37:20.305Z,2.43
2019-04-28T20:41:29.476Z,1.83
2019-04-28T20:45:37.321Z,1.93
2019-04-28T20:49:45.046Z,1.67
2019-04-28T20:53:52.897Z,1.90
2019-04-28T20:58:00.770Z,1.60
2019-04-28T21:02:10.154Z,2.73
2019-04-28T21:06:18.009Z,1.60
2019-04-28T21:10:37.273Z,2.30
2019-04-28T21:14:35.139Z,2.17
2019-04-28T21:18:42.891Z,3.03
2019-04-28T21:22:51.208Z,3.63
2019-04-28T21:27:00.251Z,3.60
2019-04-28T21:31:08.117Z,3.47
2019-04-28T21:35:16.368Z,2.70
2019-04-28T21:39:24.224Z,2.53
2019-04-28T21:43:50.723Z,2.70
2019-04-28T21:47:58.940Z,2.83
2019-04-28T21:52:07.278Z,3.33
2019-04-28T21:56:15.405Z,2.70
2019-04-28T22:00:30.117Z,2.67
2019-04-28T22:04:55.485Z,2.20
2019-04-28T22:09:03.632Z,1.77
2019-04-28T22:13:13.342Z,1.80
2019-04-28T22:17:20.841Z,1.67
2019-04-28T22:21:28.466Z,1.33
2019-04-28T22:25:36.790Z,1.50
2019-04-28T22:29:44.648Z,1.57
2019-04-28T22:33:52.770Z,1.77
2019-04-28T22:38:00.975Z,1.30
2019-04-28T22:42:08.539Z,1.60
2019-04-28T22:46:16.463Z,1.40
2019-04-28T22:50:49.804Z,1.33
2019-04-28T22:55:16.445Z,1.97
2019-04-28T22:59:28.439Z,2.00
2019-04-28T23:03:51.291Z,2.13
2019-04-28T23:07:59.712Z,1.90
2019-04-28T23:12:08.939Z,1.80
2019-04-28T23:16:16.577Z,1.90
2019-04-28T23:20:26.110Z,2.10
2019-04-28T23:24:33.801Z,2.10
2019-04-28T23:28:42.366Z,1.90
2019-04-28T23:32:50.241Z,1.90
2019-04-28T23:36:59.418Z,1.87
2019-04-28T23:41:24.789Z,1.60
2019-04-28T23:45:32.895Z,1.57
2019-04-28T23:49:40.641Z,1.53
2019-04-28T23:54:07.572Z,1.63
2019-04-28T23:58:15.347Z,1.60
